createdAt,value
2022-10-14T00:01:22.752Z,37.90
2022-10-14T00:03:51.820Z,36.00
2022-10-14T00:06:21.966Z,38.97
2022-10-14T00:08:50.679Z,31.53
2022-10-14T00:11:22.763Z,39.80
2022-10-14T00:13:52.297Z,38.90
2022-10-14T00:16:22.767Z,34.23
2022-10-14T00:18:51.654Z,29.47
2022-10-14T00:21:20.862Z,31.60
2022-10-14T00:23:49.374Z,41.43
2022-10-14T00:26:22.449Z,36.20
2022-10-14T00:28:51.509Z,29.13
2022-10-14T00:31:20.539Z,29.40
2022-10-14T00:33:49.341Z,35.43
2022-10-14T00:36:20.396Z,42.23
2022-10-14T00:38:49.537Z,34.57
2022-10-14T00:41:22.391Z,38.80
2022-10-14T00:44:02.094Z,33.97
2022-10-14T00:46:32.180Z,36.20
2022-10-14T00:49:06.712Z,35.00
2022-10-14T00:51:35.964Z,33.23
2022-10-14T00:54:04.929Z,41.93
2022-10-14T00:56:38.316Z,35.43
2022-10-14T00:59:07.726Z,42.70
2022-10-14T01:01:36.231Z,42.67
2022-10-14T01:04:04.824Z,54.20
2022-10-14T01:06:42.510Z,44.03
2022-10-14T01:09:20.407Z,37.00
2022-10-14T01:12:26.898Z,37.67
2022-10-14T01:14:59.759Z,45.50
2022-10-14T01:17:37.744Z,33.60
2022-10-14T01:20:43.789Z,33.87
2022-10-14T01:23:32.754Z,27.97
2022-10-14T01:26:12.094Z,35.33
2022-10-14T01:28:53.181Z,34.30
2022-10-14T01:31:27.096Z,28.50
2022-10-14T01:34:00.033Z,32.77
2022-10-14T01:36:34.941Z,31.07
2022-10-14T01:39:11.414Z,33.73
2022-10-14T01:41:44.362Z,31.30
2022-10-14T01:44:17.051Z,36.20
2022-10-14T01:46:51.735Z,33.13
2022-10-14T01:49:26.241Z,48.53
2022-10-14T01:52:00.446Z,39.37
2022-10-14T01:54:34.156Z,41.60
2022-10-14T01:57:06.406Z,44.20
2022-10-14T01:59:37.142Z,44.73
2022-10-14T02:02:07.158Z,38.50
2022-10-14T02:04:35.721Z,37.60
2022-10-14T02:07:08.829Z,48.10
2022-10-14T02:09:44.821Z,41.93
2022-10-14T02:12:26.347Z,37.40
2022-10-14T02:15:03.926Z,45.37
2022-10-14T02:17:37.918Z,43.83
2022-10-14T02:20:14.254Z,35.90
2022-10-14T02:22:46.237Z,35.43
2022-10-14T02:25:20.030Z,42.70
2022-10-14T02:27:50.462Z,45.77
2022-10-14T02:30:20.302Z,34.17
2022-10-14T02:32:52.303Z,39.27
2022-10-14T02:35:23.346Z,47.50
2022-10-14T02:37:54.752Z,41.53
2022-10-14T02:40:28.202Z,49.20
2022-10-14T02:42:56.695Z,41.03
2022-10-14T02:45:27.408Z,36.40
2022-10-14T02:47:57.286Z,42.00
2022-10-14T02:50:25.797Z,52.53
2022-10-14T02:52:54.272Z,46.73
2022-10-14T02:55:22.818Z,50.90
2022-10-14T02:57:51.324Z,44.73
2022-10-14T03:00:20.085Z,44.27
2022-10-14T03:02:48.865Z,45.07
2022-10-14T03:05:19.607Z,41.27
2022-10-14T03:07:48.119Z,59.07
2022-10-14T03:10:16.830Z,45.73
2022-10-14T03:12:45.459Z,43.13
2022-10-14T03:15:14.125Z,52.40
2022-10-14T03:17:42.740Z,46.87
2022-10-14T03:20:12.360Z,42.47
2022-10-14T03:22:42.546Z,43.13
2022-10-14T03:25:11.697Z,37.73
2022-10-14T03:27:40.393Z,43.63
2022-10-14T03:30:11.325Z,49.83
2022-10-14T03:32:39.893Z,40.77
2022-10-14T03:35:09.545Z,44.50
2022-10-14T03:37:38.330Z,43.93
2022-10-14T03:40:09.588Z,50.50
2022-10-14T03:42:38.109Z,61.03
2022-10-14T03:45:08.440Z,50.80
2022-10-14T03:47:37.032Z,48.40
2022-10-14T03:50:06.329Z,44.73
2022-10-14T03:52:34.877Z,54.53
2022-10-14T03:55:03.721Z,44.80
2022-10-14T03:57:33.734Z,50.40
2022-10-14T04:00:02.302Z,43.70
2022-10-14T04:02:30.869Z,55.07
2022-10-14T04:05:01.040Z,47.90
2022-10-14T04:07:29.908Z,54.17
2022-10-14T04:09:58.501Z,42.33
2022-10-14T04:12:27.118Z,49.60
2022-10-14T04:14:57.478Z,46.73
2022-10-14T04:17:26.294Z,54.53
2022-10-14T04:19:55.673Z,58.03
2022-10-14T04:22:24.407Z,53.33
2022-10-14T04:24:53.151Z,51.33
2022-10-14T04:27:21.722Z,46.40
2022-10-14T04:29:50.932Z,49.60
2022-10-14T04:32:21.335Z,49.00
2022-10-14T04:34:50.237Z,47.60
2022-10-14T04:37:18.896Z,53.37
2022-10-14T04:39:47.514Z,56.17
2022-10-14T04:42:16.094Z,50.47
2022-10-14T04:44:44.718Z,49.03
2022-10-14T04:47:13.313Z,56.80
2022-10-14T04:49:43.228Z,57.37
2022-10-14T04:52:11.845Z,54.40
2022-10-14T04:54:40.395Z,51.63
2022-10-14T04:57:10.076Z,52.33
2022-10-14T04:59:38.614Z,51.57
2022-10-14T05:02:07.292Z,55.20
2022-10-14T05:04:35.858Z,61.60
2022-10-14T05:07:05.793Z,56.13
2022-10-14T05:09:34.382Z,50.10
2022-10-14T05:12:02.934Z,54.97
2022-10-14T05:14:31.491Z,56.83
2022-10-14T05:17:00.046Z,51.93
2022-10-14T05:19:28.615Z,49.73
2022-10-14T05:21:57.188Z,58.70
2022-10-14T05:24:27.156Z,55.23
2022-10-14T05:26:55.787Z,53.70
2022-10-14T05:29:24.422Z,58.87
2022-10-14T05:31:52.959Z,55.53
2022-10-14T05:34:21.537Z,50.90
2022-10-14T05:36:50.138Z,63.20
2022-10-14T05:39:18.885Z,60.27
2022-10-14T05:41:48.778Z,54.17
2022-10-14T05:44:17.323Z,67.23
2022-10-14T05:46:47.012Z,71.23
2022-10-14T05:49:17.423Z,47.50
2022-10-14T05:51:45.999Z,48.50
2022-10-14T05:54:14.788Z,56.90
2022-10-14T05:56:43.334Z,51.13
2022-10-14T05:59:14.055Z,50.90
2022-10-14T06:01:43.314Z,55.87
2022-10-14T06:04:18.935Z,52.73
2022-10-14T06:06:47.870Z,49.40
2022-10-14T06:09:16.723Z,67.83
2022-10-14T06:11:45.671Z,49.87
2022-10-14T06:14:15.705Z,52.97
2022-10-14T06:16:44.280Z,46.33
2022-10-14T06:19:13.003Z,48.53
2022-10-14T06:21:41.680Z,50.63
2022-10-14T06:24:10.626Z,44.37
2022-10-14T06:26:39.577Z,49.70
2022-10-14T06:29:08.460Z,55.10
2022-10-14T06:31:38.413Z,51.83
2022-10-14T06:34:07.837Z,41.50
2022-10-14T06:36:37.924Z,45.77
2022-10-14T06:39:06.557Z,52.87
2022-10-14T06:41:35.075Z,52.53
2022-10-14T06:44:03.617Z,49.43
2022-10-14T06:46:32.195Z,52.20
2022-10-14T06:49:02.171Z,53.43
2022-10-14T06:51:30.828Z,68.70
2022-10-14T06:53:59.354Z,60.83
2022-10-14T06:56:28.008Z,52.10
2022-10-14T06:58:56.978Z,53.70
2022-10-14T07:01:25.913Z,51.60
2022-10-14T07:03:56.674Z,47.43
2022-10-14T07:06:27.239Z,45.13
2022-10-14T07:08:55.812Z,42.27
2022-10-14T07:11:24.433Z,48.80
2022-10-14T07:13:52.913Z,62.67
2022-10-14T07:16:21.403Z,80.97
2022-10-14T07:18:50.439Z,78.83
2022-10-14T07:21:18.984Z,55.70
2022-10-14T07:23:48.913Z,57.33
2022-10-14T07:26:17.615Z,47.33
2022-10-14T07:28:46.140Z,43.33
2022-10-14T07:31:15.076Z,51.80
2022-10-14T07:33:43.620Z,57.17
2022-10-14T07:36:17.206Z,44.37
2022-10-14T07:38:49.966Z,46.30
2022-10-14T07:41:21.613Z,52.83
2022-10-14T07:43:52.413Z,60.10
2022-10-14T07:46:29.327Z,48.30
2022-10-14T07:48:58.625Z,48.00
2022-10-14T07:54:19.028Z,47.63
2022-10-14T07:56:49.223Z,53.67
2022-10-14T07:59:18.017Z,45.43
2022-10-14T08:01:48.856Z,54.17
2022-10-14T08:04:17.795Z,56.00
2022-10-14T08:06:48.071Z,47.30
2022-10-14T08:09:18.903Z,59.07
2022-10-14T08:11:47.640Z,45.77
2022-10-14T08:14:16.947Z,49.67
2022-10-14T08:16:45.492Z,51.73
2022-10-14T08:19:14.987Z,54.30
2022-10-14T08:21:44.213Z,62.93
2022-10-14T08:24:12.784Z,51.20
2022-10-14T08:26:50.319Z,53.57
2022-10-14T08:29:18.960Z,62.17
2022-10-14T08:31:47.527Z,55.30
2022-10-14T08:34:16.198Z,50.43
2022-10-14T08:36:44.707Z,39.43
2022-10-14T08:39:13.255Z,42.53
2022-10-14T08:42:03.699Z,35.37
2022-10-14T08:44:42.017Z,37.87
2022-10-14T08:47:14.313Z,35.93
2022-10-14T08:49:54.005Z,41.10
2022-10-14T08:52:26.997Z,38.00
2022-10-14T08:55:00.130Z,41.57
2022-10-14T08:57:34.498Z,33.17
2022-10-14T09:00:03.190Z,38.20
2022-10-14T09:02:40.281Z,33.37
2022-10-14T09:05:14.692Z,38.43
2022-10-14T09:07:43.834Z,38.63
2022-10-14T09:10:22.328Z,48.50
2022-10-14T09:12:54.243Z,33.97
2022-10-14T09:15:28.983Z,25.77
2022-10-14T09:18:06.718Z,35.10
2022-10-14T09:20:35.337Z,33.17
2022-10-14T09:23:15.890Z,29.77
2022-10-14T09:25:52.536Z,32.00
2022-10-14T09:28:23.784Z,24.10
2022-10-14T09:30:52.638Z,27.27
2022-10-14T09:33:22.604Z,30.03
2022-10-14T09:35:51.153Z,18.93
2022-10-14T09:38:20.907Z,26.57
2022-10-14T09:40:53.234Z,16.50
2022-10-14T09:43:24.956Z,13.30
2022-10-14T09:45:57.790Z,15.23
2022-10-14T09:48:34.304Z,18.13
2022-10-14T09:51:05.644Z,14.83
2022-10-14T09:53:37.867Z,9.50
2022-10-14T09:56:08.473Z,14.37
2022-10-14T09:58:43.788Z,17.40
2022-10-14T10:01:19.078Z,27.77
2022-10-14T10:03:49.688Z,14.07
2022-10-14T10:06:21.483Z,13.03
2022-10-14T10:09:00.162Z,21.43
2022-10-14T10:11:30.991Z,12.13
2022-10-14T10:14:16.181Z,20.50
2022-10-14T10:16:44.802Z,9.77
2022-10-14T10:19:33.731Z,13.93
2022-10-14T10:24:48.732Z,28.10
2022-10-14T10:27:22.754Z,40.53
2022-10-14T10:29:55.853Z,24.80
2022-10-14T10:32:30.862Z,30.00
2022-10-14T10:35:17.853Z,11.90
2022-10-14T10:38:00.586Z,14.23
2022-10-14T10:40:35.316Z,7.67
2022-10-14T10:43:40.234Z,21.53
2022-10-14T10:46:20.787Z,17.90
2022-10-14T10:48:56.582Z,4.80
2022-10-14T10:51:31.873Z,14.90
2022-10-14T10:54:08.591Z,15.90
2022-10-14T10:56:43.757Z,17.73
2022-10-14T10:59:33.585Z,6.70
2022-10-14T11:02:38.216Z,11.70
2022-10-14T11:05:13.286Z,13.90
2022-10-14T11:08:10.963Z,17.70
2022-10-14T11:11:05.360Z,10.20
2022-10-14T11:13:43.228Z,13.20
2022-10-14T11:16:16.836Z,7.63
2022-10-14T11:18:50.405Z,5.70
2022-10-14T11:21:30.764Z,7.80
2022-10-14T11:24:05.936Z,5.23
2022-10-14T11:27:01.702Z,7.03
2022-10-14T11:30:02.608Z,5.27
2022-10-14T11:32:41.658Z,7.77
2022-10-14T11:35:25.193Z,4.00
2022-10-14T11:38:06.503Z,2.77
2022-10-14T11:40:40.607Z,3.40
2022-10-14T11:43:20.464Z,12.43
2022-10-14T11:45:55.159Z,6.63
2022-10-14T11:48:29.020Z,4.93
2022-10-14T11:51:03.763Z,4.00
2022-10-14T11:53:48.307Z,11.60
2022-10-14T11:56:29.246Z,4.20
2022-10-14T11:59:32.087Z,9.33
2022-10-14T12:02:09.320Z,7.87
2022-10-14T12:04:40.485Z,12.00
2022-10-14T12:07:17.891Z,8.77
2022-10-14T12:09:55.869Z,6.23
2022-10-14T12:12:30.372Z,45.30
2022-10-14T12:15:02.560Z,14.80
2022-10-14T12:17:35.293Z,12.50
2022-10-14T12:20:15.510Z,9.87
2022-10-14T12:22:47.917Z,14.10
2022-10-14T12:25:21.533Z,14.40
2022-10-14T12:27:52.234Z,9.40
2022-10-14T12:30:36.858Z,6.60
2022-10-14T12:33:12.874Z,6.83
2022-10-14T12:36:02.436Z,6.40
2022-10-14T12:38:35.798Z,6.50
2022-10-14T12:41:36.147Z,5.23
2022-10-14T12:44:06.320Z,5.97
2022-10-14T12:46:44.913Z,6.30
2022-10-14T12:49:19.943Z,5.43
2022-10-14T12:51:57.521Z,8.83
2022-10-14T12:54:28.834Z,10.10
2022-10-14T12:56:59.893Z,4.93
2022-10-14T12:59:31.767Z,4.50
2022-10-14T13:02:04.449Z,7.80
2022-10-14T13:04:35.245Z,6.90
2022-10-14T13:07:47.351Z,9.90
2022-10-14T13:10:47.232Z,9.47
2022-10-14T13:13:53.496Z,8.67
2022-10-14T13:16:56.122Z,6.20
2022-10-14T13:19:47.672Z,11.67
2022-10-14T13:22:35.911Z,7.93
2022-10-14T13:25:15.541Z,10.10
2022-10-14T13:27:59.929Z,5.60
2022-10-14T13:30:40.547Z,6.20
2022-10-14T13:33:19.619Z,6.10
2022-10-14T13:36:01.200Z,5.27
2022-10-14T13:38:31.010Z,6.70
2022-10-14T13:41:00.381Z,5.30
2022-10-14T13:43:42.438Z,6.97
2022-10-14T13:46:17.226Z,5.13
2022-10-14T13:48:47.558Z,5.47
2022-10-14T13:51:44.124Z,8.17
2022-10-14T13:54:19.765Z,8.07
2022-10-14T13:57:38.325Z,27.13
2022-10-14T14:00:37.882Z,5.67
2022-10-14T14:02:40.823Z,4.13
2022-10-14T14:05:17.238Z,8.50
2022-10-14T14:10:42.586Z,3.47
2022-10-14T14:13:15.398Z,5.00
2022-10-14T14:15:51.013Z,4.30
2022-10-14T14:18:38.046Z,3.43
2022-10-14T14:21:17.236Z,4.80
2022-10-14T14:23:56.780Z,3.13
2022-10-14T14:26:30.531Z,15.17
2022-10-14T14:28:59.129Z,23.60
2022-10-14T14:31:48.022Z,5.63
2022-10-14T14:34:20.121Z,4.67
2022-10-14T14:36:55.181Z,3.40
2022-10-14T14:39:28.477Z,4.77
2022-10-14T14:41:58.971Z,5.63
2022-10-14T14:44:29.875Z,5.93
2022-10-14T14:47:02.937Z,2.70
2022-10-14T14:49:33.988Z,3.40
2022-10-14T14:52:03.443Z,5.73
2022-10-14T14:54:32.128Z,6.60
2022-10-14T14:57:05.847Z,3.30
2022-10-14T14:59:37.433Z,6.90
2022-10-14T15:02:15.419Z,2.70
2022-10-14T15:04:44.082Z,3.47
2022-10-14T15:07:21.086Z,4.53
2022-10-14T15:09:54.774Z,6.27
2022-10-14T15:12:25.792Z,5.37
2022-10-14T15:14:56.584Z,3.83
2022-10-14T15:17:32.270Z,5.70
2022-10-14T15:20:02.433Z,5.30
2022-10-14T15:22:36.387Z,5.70
2022-10-14T15:25:10.712Z,7.33
2022-10-14T15:27:50.502Z,12.30
2022-10-14T15:30:34.992Z,10.83
2022-10-14T15:33:16.272Z,11.30
2022-10-14T15:35:46.631Z,11.53
2022-10-14T15:38:17.344Z,14.30
2022-10-14T15:40:46.692Z,12.83
2022-10-14T15:43:17.792Z,20.40
2022-10-14T15:46:08.976Z,14.67
2022-10-14T15:48:39.256Z,16.33
2022-10-14T15:51:12.029Z,14.77
2022-10-14T15:53:40.529Z,11.20
2022-10-14T15:56:10.288Z,11.60
2022-10-14T15:58:48.185Z,9.80
2022-10-14T16:01:20.415Z,17.30
2022-10-14T16:03:52.342Z,19.43
2022-10-14T16:06:22.737Z,16.43
2022-10-14T16:08:51.431Z,37.03
2022-10-14T16:11:23.581Z,17.63
2022-10-14T16:13:53.918Z,19.90
2022-10-14T16:16:26.599Z,23.93
2022-10-14T16:18:56.865Z,36.97
2022-10-14T16:21:25.514Z,25.20
2022-10-14T16:23:54.559Z,28.60
2022-10-14T16:26:23.308Z,28.87
2022-10-14T16:28:52.468Z,30.10
2022-10-14T16:31:29.978Z,29.10
2022-10-14T16:33:59.942Z,46.17
2022-10-14T16:36:29.567Z,32.13
2022-10-14T16:38:58.165Z,38.50
2022-10-14T16:41:26.679Z,37.40
2022-10-14T16:44:00.287Z,37.20
2022-10-14T16:46:42.650Z,42.17
2022-10-14T16:49:12.804Z,42.30
2022-10-14T16:51:42.341Z,40.87
2022-10-14T16:54:11.207Z,36.80
2022-10-14T16:56:55.029Z,37.03
2022-10-14T16:59:24.459Z,35.57
2022-10-14T17:01:53.580Z,40.67
2022-10-14T17:04:24.031Z,43.03
2022-10-14T17:06:52.923Z,41.87
2022-10-14T17:09:21.950Z,42.97
2022-10-14T17:11:50.908Z,43.67
2022-10-14T17:14:24.273Z,50.10
2022-10-14T17:16:53.400Z,45.83
2022-10-14T17:19:23.924Z,47.40
2022-10-14T17:21:52.446Z,37.17
2022-10-14T17:24:21.109Z,42.60
2022-10-14T17:26:49.868Z,28.87
2022-10-14T17:29:18.567Z,34.27
2022-10-14T17:31:47.255Z,33.93
2022-10-14T17:34:15.816Z,30.73
2022-10-14T17:36:45.821Z,25.87
2022-10-14T17:39:21.306Z,23.83
2022-10-14T17:41:56.082Z,28.73
2022-10-14T17:44:24.673Z,22.03
2022-10-14T17:46:53.378Z,26.20
2022-10-14T17:49:21.971Z,27.23
2022-10-14T17:51:51.871Z,24.40
2022-10-14T17:54:20.541Z,21.97
2022-10-14T17:56:49.087Z,29.70
2022-10-14T17:59:17.610Z,25.03
2022-10-14T18:02:03.704Z,24.33
2022-10-14T18:04:33.541Z,23.37
2022-10-14T18:07:03.582Z,27.80
2022-10-14T18:09:33.857Z,25.43
2022-10-14T18:12:10.368Z,29.07
2022-10-14T18:14:40.762Z,29.83
2022-10-14T18:17:12.832Z,36.90
2022-10-14T18:19:42.139Z,37.03
2022-10-14T18:22:12.195Z,38.13
2022-10-14T18:24:40.762Z,41.73
2022-10-14T18:27:09.301Z,39.10
2022-10-14T18:29:38.086Z,41.83
2022-10-14T18:32:07.383Z,42.40
2022-10-14T18:34:36.097Z,44.90
2022-10-14T18:37:04.693Z,43.67
2022-10-14T18:39:34.644Z,48.63
2022-10-14T18:42:07.777Z,50.03
2022-10-14T18:44:36.266Z,55.83
2022-10-14T18:47:04.872Z,50.90
2022-10-14T18:49:38.165Z,54.97
2022-10-14T18:52:09.588Z,52.00
2022-10-14T18:54:39.671Z,53.43
2022-10-14T18:57:09.508Z,52.83
2022-10-14T18:59:38.024Z,74.03
2022-10-14T19:02:07.218Z,68.93
2022-10-14T19:04:36.447Z,69.00
2022-10-14T19:07:05.390Z,51.70
2022-10-14T19:09:34.339Z,73.63
2022-10-14T19:12:24.938Z,52.53
2022-10-14T19:14:54.119Z,60.70
2022-10-14T19:17:22.778Z,51.70
2022-10-14T19:19:51.336Z,69.00
2022-10-14T19:22:20.287Z,61.80
2022-10-14T19:24:49.104Z,59.77
2022-10-14T19:27:19.133Z,64.13
2022-10-14T19:29:47.784Z,57.20
2022-10-14T19:32:16.440Z,59.23
2022-10-14T19:34:47.503Z,50.90
2022-10-14T19:37:16.190Z,48.13
2022-10-14T19:39:44.922Z,49.10
2022-10-14T19:42:13.463Z,54.40
2022-10-14T19:44:43.511Z,57.60
2022-10-14T19:47:12.111Z,51.27
2022-10-14T19:49:40.689Z,45.43
2022-10-14T19:52:09.287Z,43.03
2022-10-14T19:54:37.967Z,45.47
2022-10-14T19:57:06.619Z,35.00
2022-10-14T19:59:35.255Z,36.30
2022-10-14T20:02:05.219Z,43.00
2022-10-14T20:04:33.905Z,41.60
2022-10-14T20:07:02.417Z,42.13
2022-10-14T20:09:31.070Z,34.80
2022-10-14T20:11:59.704Z,35.43
2022-10-14T20:14:29.784Z,37.20
2022-10-14T20:16:58.319Z,39.60
2022-10-14T20:19:28.250Z,30.40
2022-10-14T20:21:56.922Z,33.93
2022-10-14T20:24:25.513Z,31.80
2022-10-14T20:26:54.023Z,39.03
2022-10-14T20:29:22.710Z,37.50
2022-10-14T20:31:51.295Z,33.10
2022-10-14T20:34:19.850Z,29.83
2022-10-14T20:36:49.761Z,33.30
2022-10-14T20:39:18.310Z,27.47
2022-10-14T20:41:46.892Z,34.97
2022-10-14T20:44:16.739Z,28.20
2022-10-14T20:46:47.698Z,29.00
2022-10-14T20:49:16.844Z,24.47
2022-10-14T20:51:45.409Z,28.03
2022-10-14T20:54:15.356Z,29.07
2022-10-14T20:56:43.772Z,27.57
2022-10-14T20:59:14.862Z,27.43
2022-10-14T21:01:43.457Z,24.90
2022-10-14T21:04:12.992Z,31.07
2022-10-14T21:06:41.451Z,24.97
2022-10-14T21:09:10.757Z,30.27
2022-10-14T21:11:41.473Z,26.00
2022-10-14T21:14:10.138Z,30.27
2022-10-14T21:16:39.840Z,26.03
2022-10-14T21:19:09.851Z,31.03
2022-10-14T21:21:40.373Z,23.97
2022-10-14T21:24:09.608Z,31.50
2022-10-14T21:26:39.479Z,30.23
2022-10-14T21:29:08.003Z,28.43
2022-10-14T21:31:36.702Z,22.50
2022-10-14T21:34:06.675Z,24.70
2022-10-14T21:36:35.780Z,22.40
2022-10-14T21:39:07.738Z,27.27
2022-10-14T21:41:36.572Z,24.73
2022-10-14T21:44:07.044Z,26.00
2022-10-14T21:46:36.165Z,23.63
2022-10-14T21:49:04.741Z,26.73
2022-10-14T21:51:33.988Z,24.60
2022-10-14T21:54:02.535Z,28.63
2022-10-14T21:56:31.136Z,32.30
2022-10-14T21:58:59.943Z,24.03
2022-10-14T22:01:31.466Z,26.00
2022-10-14T22:04:01.285Z,21.53
2022-10-14T22:06:29.898Z,26.73
2022-10-14T22:09:00.251Z,23.00
2022-10-14T22:11:30.948Z,24.37
2022-10-14T22:14:01.345Z,26.40
2022-10-14T22:16:31.468Z,24.07
2022-10-14T22:19:01.415Z,23.83
2022-10-14T22:21:32.202Z,21.53
2022-10-14T22:24:00.874Z,27.80
2022-10-14T22:26:30.732Z,24.30
2022-10-14T22:29:00.275Z,22.63
2022-10-14T22:31:32.875Z,26.20
2022-10-14T22:34:02.342Z,21.00
2022-10-14T22:36:32.231Z,22.90
2022-10-14T22:39:02.330Z,17.17
2022-10-14T22:41:35.277Z,20.53
2022-10-14T22:44:05.140Z,21.53
2022-10-14T22:46:37.295Z,27.40
2022-10-14T22:49:06.247Z,21.10
2022-10-14T22:51:36.444Z,25.77
2022-10-14T22:54:05.681Z,21.27
2022-10-14T22:56:34.594Z,24.60
2022-10-14T22:59:05.227Z,22.60
2022-10-14T23:01:35.995Z,19.37
2022-10-14T23:04:05.223Z,21.57
2022-10-14T23:06:33.728Z,22.20
2022-10-14T23:09:02.559Z,22.10
2022-10-14T23:11:32.212Z,22.33
2022-10-14T23:14:03.022Z,36.80
2022-10-14T23:16:37.362Z,22.83
2022-10-14T23:19:05.869Z,24.70
2022-10-14T23:21:35.843Z,28.63
2022-10-14T23:24:06.390Z,17.90
2022-10-14T23:26:36.389Z,18.27
2022-10-14T23:29:07.287Z,16.60
2022-10-14T23:31:38.624Z,18.63
2022-10-14T23:34:08.862Z,21.17
2022-10-14T23:36:38.253Z,34.50
2022-10-14T23:39:06.966Z,23.60
2022-10-14T23:41:35.510Z,18.30
2022-10-14T23:44:04.064Z,16.60
2022-10-14T23:46:32.517Z,20.50
2022-10-14T23:49:07.493Z,18.03
2022-10-14T23:51:42.706Z,24.73
2022-10-14T23:54:11.203Z,27.93
2022-10-14T23:56:39.854Z,29.93
2022-10-14T23:59:08.358Z,21.63
